Time;durP1;ratioP1;P1;durP2;ratioP2;P2;SDS_P1;SDS_P2;PMS_P1;PMS_P2;Temp;Humidity;BMP_temperature;BMP_pressure;BME280_temperature;BME280_humidity;BME280_pressure;Samples;Min_cycle;Max_cycle;Signal;HPM_P1;HPM_P2
2024/01/28 00:01:46;;;;;;;51.92;29.02;;;-2.30;99.90;;;;;;5072158;28;20024;-83
2024/01/28 00:04:12;;;;;;;49.53;26.00;;;-2.30;99.90;;;;;;5072943;28;20060;-81
2024/01/28 00:06:38;;;;;;;48.50;26.38;;;-2.40;99.90;;;;;;5073012;28;20117;-82
2024/01/28 00:09:03;;;;;;;53.75;30.88;;;-2.40;99.90;;;;;;5071964;28;20052;-82
2024/01/28 00:11:29;;;;;;;55.65;29.27;;;-2.40;99.90;;;;;;5072378;28;20519;-82
2024/01/28 00:13:55;;;;;;;56.25;27.05;;;-2.50;99.90;;;;;;5072623;28;20047;-82
2024/01/28 00:16:21;;;;;;;51.20;28.63;;;-2.50;99.90;;;;;;5073063;28;20431;-83
2024/01/28 00:18:47;;;;;;;56.08;28.13;;;-2.50;99.90;;;;;;5070704;28;20029;-82
2024/01/28 00:21:13;;;;;;;51.55;28.58;;;-2.50;99.90;;;;;;5065801;28;20088;-82
2024/01/28 00:23:39;;;;;;;58.42;27.48;;;-2.50;99.90;;;;;;5071738;28;20027;-83
2024/01/28 00:26:07;;;;;;;53.05;28.67;;;-2.50;99.90;;;;;;5070732;28;20107;-81
2024/01/28 00:28:32;;;;;;;;;;;-2.50;99.90;;;;;;5072778;28;20918;-82
2024/01/28 00:30:58;;;;;;;51.35;27.77;;;-2.40;99.90;;;;;;5072269;28;19979;-81
2024/01/28 00:33:24;;;;;;;57.13;30.40;;;-2.40;99.90;;;;;;5072471;28;20119;-82
2024/01/28 00:35:49;;;;;;;64.32;29.70;;;-2.40;99.90;;;;;;5078057;28;20023;-80
2024/01/28 00:38:15;;;;;;;58.95;31.52;;;-2.50;99.90;;;;;;5071705;28;20025;-82
2024/01/28 00:40:41;;;;;;;65.50;34.90;;;-2.50;99.90;;;;;;5072124;28;20020;-82
2024/01/28 00:43:07;;;;;;;62.83;30.98;;;-2.50;99.90;;;;;;5071463;28;20021;-83
2024/01/28 00:45:35;;;;;;;60.05;30.13;;;-2.50;99.90;;;;;;5074744;28;20385;-84
2024/01/28 00:48:00;;;;;;;60.92;31.92;;;-2.50;99.90;;;;;;5090914;28;20023;-84
2024/01/28 00:50:26;;;;;;;64.43;31.45;;;-2.50;99.90;;;;;;5087603;28;20048;-81
2024/01/28 00:52:52;;;;;;;70.47;31.80;;;-2.50;99.90;;;;;;5076425;28;20047;-82
2024/01/28 00:55:18;;;;;;;65.82;31.83;;;-2.50;99.90;;;;;;5075711;28;20100;-81
2024/01/28 00:57:44;;;;;;;72.43;34.03;;;-2.50;99.90;;;;;;5075729;28;20017;-82
2024/01/28 01:00:10;;;;;;;67.93;32.65;;;-2.50;99.90;;;;;;5074295;28;20028;-82
2024/01/28 01:02:36;;;;;;;69.28;35.10;;;-2.50;99.90;;;;;;5075371;28;20029;-81
2024/01/28 01:05:02;;;;;;;59.60;30.85;;;-2.50;99.90;;;;;;5076271;28;20083;-82
2024/01/28 01:07:28;;;;;;;66.45;29.98;;;-2.40;99.90;;;;;;5076584;28;20094;-81
2024/01/28 01:09:54;;;;;;;66.60;31.27;;;-2.40;99.90;;;;;;5073593;28;20071;-82
2024/01/28 01:12:20;;;;;;;65.03;31.20;;;-2.40;99.90;;;;;;5074303;28;20489;-82
2024/01/28 01:14:46;;;;;;;73.85;33.22;;;-2.40;99.90;;;;;;5075539;28;20021;-81
2024/01/28 01:17:12;;;;;;;66.35;31.80;;;-2.40;99.90;;;;;;5075496;28;20020;-82
2024/01/28 01:19:37;;;;;;;63.30;32.78;;;-2.40;99.90;;;;;;5075711;28;20607;-82
2024/01/28 01:22:04;;;;;;;71.00;33.13;;;-2.40;99.90;;;;;;5085206;28;20035;-81
2024/01/28 01:24:30;;;;;;;73.55;32.58;;;-2.40;99.90;;;;;;5073261;28;20017;-81
2024/01/28 01:26:56;;;;;;;70.95;34.45;;;-2.40;99.90;;;;;;5074803;28;20051;-82
2024/01/28 01:29:22;;;;;;;62.70;31.27;;;-2.40;99.90;;;;;;5077039;28;20115;-83
2024/01/28 01:31:48;;;;;;;77.07;37.40;;;-2.40;99.90;;;;;;5079201;28;20025;-82
2024/01/28 01:34:14;;;;;;;59.03;30.80;;;-2.40;99.90;;;;;;5077250;28;20089;-83
2024/01/28 01:36:44;;;;;;;59.20;28.85;;;-2.40;99.90;;;;;;5080330;28;20104;-85
2024/01/28 01:39:10;;;;;;;73.10;33.58;;;-2.40;99.90;;;;;;5079517;28;20115;-82
2024/01/28 01:41:36;;;;;;;60.30;30.25;;;-2.40;99.90;;;;;;5079760;28;20056;-82
2024/01/28 01:44:02;;;;;;;60.13;31.05;;;-2.40;99.90;;;;;;5082229;28;20054;-82
2024/01/28 01:46:29;;;;;;;53.47;29.98;;;-2.30;99.90;;;;;;5085612;28;20024;-84
2024/01/28 01:48:55;;;;;;;67.30;34.00;;;-2.40;99.90;;;;;;5085175;28;20017;-81
2024/01/28 01:51:23;;;;;;;64.10;29.90;;;-2.40;99.90;;;;;;5079191;28;20043;-81
2024/01/28 01:53:50;;;;;;;55.05;30.27;;;-2.40;99.90;;;;;;5078888;28;20032;-82
2024/01/28 01:56:16;;;;;;;56.67;28.58;;;-2.50;99.90;;;;;;5077968;28;20028;-81
2024/01/28 01:58:43;;;;;;;59.70;28.52;;;-2.40;99.90;;;;;;5072225;28;20033;-82
2024/01/28 02:01:11;;;;;;;57.03;31.83;;;-2.50;99.90;;;;;;5081831;28;20103;-80
2024/01/28 02:03:37;;;;;;;60.45;31.77;;;-2.50;99.90;;;;;;5081150;28;20437;-81
2024/01/28 02:06:05;;;;;;;54.83;29.30;;;-2.50;99.90;;;;;;5074734;28;20048;-80
2024/01/28 02:08:31;;;;;;;58.95;31.80;;;-2.50;99.90;;;;;;5075336;28;20441;-82
2024/01/28 02:10:57;;;;;;;59.88;30.48;;;-2.50;99.90;;;;;;5082132;28;20017;-82
2024/01/28 02:13:23;;;;;;;60.80;29.52;;;-2.50;99.90;;;;;;5074245;28;20040;-81
2024/01/28 02:15:48;;;;;;;54.05;30.08;;;-2.50;99.90;;;;;;5072133;28;20039;-80
2024/01/28 02:18:14;;;;;;;62.00;32.08;;;-2.50;99.90;;;;;;5075104;28;20073;-82
2024/01/28 02:20:40;;;;;;;49.85;25.88;;;-2.50;99.90;;;;;;5076119;28;20036;-82
2024/01/28 02:23:06;;;;;;;51.95;25.80;;;-2.50;99.90;;;;;;5091683;28;20044;-81
2024/01/28 02:25:33;;;;;;;53.35;27.33;;;-2.50;99.90;;;;;;5080191;28;20100;-82
2024/01/28 02:27:58;;;;;;;52.97;28.43;;;-2.50;99.90;;;;;;5061181;28;20021;-84
2024/01/28 02:30:24;;;;;;;43.90;27.55;;;-2.50;99.90;;;;;;5073901;28;20032;-86
2024/01/28 02:32:51;;;;;;;48.85;25.98;;;-2.50;99.90;;;;;;5069290;28;20033;-84
2024/01/28 02:35:18;;;;;;;63.80;30.50;;;-2.50;99.90;;;;;;5085352;28;20020;-82
2024/01/28 02:37:43;;;;;;;51.25;28.25;;;-2.50;99.90;;;;;;5072993;28;20037;-83
2024/01/28 02:40:10;;;;;;;44.35;25.13;;;-2.60;99.90;;;;;;5072642;28;20501;-81
2024/01/28 02:42:36;;;;;;;44.63;28.15;;;-2.60;99.90;;;;;;5072027;28;20036;-83
2024/01/28 02:45:02;;;;;;;56.13;29.50;;;-2.60;99.90;;;;;;5071957;28;20028;-81
2024/01/28 02:47:27;;;;;;;53.40;29.67;;;-2.50;99.90;;;;;;5074518;28;20016;-81
2024/01/28 02:49:53;;;;;;;50.13;29.83;;;-2.50;99.90;;;;;;5073800;28;20033;-81
2024/01/28 02:52:19;;;;;;;60.25;29.70;;;-2.40;99.90;;;;;;5072743;28;20017;-83
2024/01/28 02:54:45;;;;;;;54.53;28.85;;;-2.40;99.90;;;;;;5072488;28;20401;-83
2024/01/28 02:57:11;;;;;;;54.53;28.13;;;-2.40;99.90;;;;;;5073720;28;20367;-82
2024/01/28 02:59:37;;;;;;;58.47;31.88;;;-2.30;99.90;;;;;;5073715;28;20096;-83
2024/01/28 03:02:03;;;;;;;44.03;27.65;;;-2.30;99.90;;;;;;5071106;28;20107;-83
2024/01/28 03:04:29;;;;;;;57.97;30.10;;;-2.20;99.90;;;;;;5073841;28;20028;-84
2024/01/28 03:06:55;;;;;;;57.30;29.90;;;-2.20;99.90;;;;;;5067301;28;20104;-81
2024/01/28 03:09:20;;;;;;;56.58;29.75;;;-2.30;99.90;;;;;;5074302;28;20131;-83
2024/01/28 03:11:46;;;;;;;57.50;29.70;;;-2.30;99.90;;;;;;5073169;28;20470;-82
2024/01/28 03:14:12;;;;;;;54.08;29.80;;;-2.30;99.90;;;;;;5073307;28;20024;-83
2024/01/28 03:16:38;;;;;;;61.05;30.02;;;-2.30;99.90;;;;;;5073651;28;20100;-81
2024/01/28 03:19:04;;;;;;;52.28;25.92;;;-2.30;99.90;;;;;;5074760;28;20359;-84
2024/01/28 03:21:30;;;;;;;53.05;27.45;;;-2.20;99.90;;;;;;5074236;28;20069;-82
2024/01/28 03:23:56;;;;;;;55.50;28.20;;;-2.20;99.90;;;;;;5071354;28;20375;-81
2024/01/28 03:26:22;;;;;;;52.05;25.98;;;-2.20;99.90;;;;;;5073416;28;20021;-82
2024/01/28 03:28:48;;;;;;;56.00;30.27;;;-2.20;99.90;;;;;;5074122;28;20043;-83
2024/01/28 03:31:16;;;;;;;51.97;28.67;;;-2.20;99.90;;;;;;5068261;28;20467;-83
2024/01/28 03:33:42;;;;;;;56.55;28.35;;;-2.20;99.90;;;;;;5073087;28;20020;-82
2024/01/28 03:36:10;;;;;;;56.35;28.42;;;-2.30;99.90;;;;;;5071550;28;20401;-81
2024/01/28 03:38:36;;;;;;;58.03;27.90;;;-2.30;99.90;;;;;;5071932;28;20047;-83
2024/01/28 03:41:02;;;;;;;50.25;26.25;;;-2.30;99.90;;;;;;5054956;28;20044;-82
2024/01/28 03:43:28;;;;;;;51.28;27.00;;;-2.30;99.90;;;;;;5088244;28;20063;-84
2024/01/28 03:45:53;;;;;;;54.30;27.38;;;-2.20;99.90;;;;;;5073277;28;20409;-84
2024/01/28 03:48:19;;;;;;;51.60;29.95;;;-2.20;99.90;;;;;;5071815;28;20454;-84
2024/01/28 03:50:46;;;;;;;49.58;28.38;;;-2.20;99.90;;;;;;5071777;28;20074;-84
2024/01/28 03:53:12;;;;;;;48.72;26.77;;;-2.20;99.90;;;;;;5071809;28;20110;-82
2024/01/28 03:55:37;;;;;;;40.90;24.70;;;-2.20;99.90;;;;;;5087267;28;20549;-83
2024/01/28 03:58:03;;;;;;;52.03;26.48;;;-2.10;99.90;;;;;;5069264;28;20107;-83
2024/01/28 04:00:29;;;;;;;53.42;26.80;;;-2.10;99.90;;;;;;5075028;28;20017;-82
2024/01/28 04:03:00;;;;;;;51.80;26.92;;;-2.20;99.90;;;;;;5083215;28;20473;-84
2024/01/28 04:05:26;;;;;;;51.83;29.05;;;-2.30;99.90;;;;;;5073835;28;20054;-82
2024/01/28 04:07:53;;;;;;;55.85;28.98;;;-2.30;99.90;;;;;;5091221;28;20036;-82
2024/01/28 04:10:19;;;;;;;57.38;30.67;;;-2.20;99.90;;;;;;5075862;28;20032;-83
2024/01/28 04:12:45;;;;;;;53.63;27.50;;;-2.20;99.90;;;;;;5071202;28;20017;-82
2024/01/28 04:15:10;;;;;;;50.00;26.83;;;-2.20;99.90;;;;;;5071931;28;20439;-82
2024/01/28 04:17:36;;;;;;;55.70;26.02;;;-2.20;99.90;;;;;;5083558;28;20016;-82
2024/01/28 04:20:04;;;;;;;50.92;28.40;;;-2.30;99.90;;;;;;5074401;28;20024;-84
2024/01/28 04:22:30;;;;;;;51.40;25.85;;;-2.30;99.90;;;;;;5071729;28;20020;-82
2024/01/28 04:24:56;;;;;;;47.70;24.83;;;-2.30;99.90;;;;;;5073051;28;20034;-81
2024/01/28 04:27:22;;;;;;;45.35;26.38;;;-2.40;99.90;;;;;;5073630;28;20029;-83
2024/01/28 04:29:47;;;;;;;52.28;25.08;;;-2.40;99.90;;;;;;5076863;28;20032;-83
2024/01/28 04:32:14;;;;;;;48.97;25.85;;;-2.40;99.90;;;;;;5075911;28;20036;-83
2024/01/28 04:34:40;;;;;;;41.97;24.13;;;-2.40;99.90;;;;;;5073859;28;20036;-82
2024/01/28 04:37:06;;;;;;;49.15;26.20;;;-2.40;99.90;;;;;;5073240;28;20257;-83
2024/01/28 04:39:34;;;;;;;40.95;25.65;;;-2.40;99.90;;;;;;5072396;28;20029;-82
2024/01/28 04:42:01;;;;;;;49.28;26.00;;;-2.30;99.90;;;;;;5072265;28;20012;-82
2024/01/28 04:44:27;;;;;;;42.90;23.33;;;-2.40;99.90;;;;;;5082807;28;20041;-82
2024/01/28 04:46:55;;;;;;;44.20;24.33;;;-2.40;99.90;;;;;;5076811;28;20023;-82
2024/01/28 04:49:21;;;;;;;53.90;26.63;;;-2.40;99.90;;;;;;5067480;28;20387;-83
2024/01/28 04:51:46;;;;;;;50.13;25.35;;;-2.40;99.90;;;;;;5068083;28;20029;-82
2024/01/28 04:54:14;;;;;;;45.67;23.10;;;-2.40;99.90;;;;;;5073790;28;20430;-82
2024/01/28 04:56:40;;;;;;;42.35;21.15;;;-2.30;99.90;;;;;;5071582;28;20025;-81
2024/01/28 04:59:06;;;;;;;43.42;21.95;;;-2.20;99.90;;;;;;5072251;28;20039;-82
2024/01/28 05:01:33;;;;;;;43.70;22.55;;;-2.20;99.90;;;;;;5071943;28;20045;-83
2024/01/28 05:04:01;;;;;;;41.63;23.67;;;-2.20;99.90;;;;;;5074533;28;20028;-83
2024/01/28 05:06:34;;;;;;;41.08;22.95;;;-2.20;99.90;;;;;;5087304;28;20039;-83
2024/01/28 05:09:04;;;;;;;41.75;23.50;;;-2.20;99.90;;;;;;5062506;28;20045;-84
2024/01/28 05:11:31;;;;;;;40.42;23.05;;;-2.20;99.90;;;;;;5075183;28;20021;-82
2024/01/28 05:13:57;;;;;;;42.30;22.38;;;-2.30;99.90;;;;;;5073307;28;20020;-83
2024/01/28 05:16:24;;;;;;;32.58;21.60;;;-2.30;99.90;;;;;;5080467;28;20036;-82
2024/01/28 05:18:51;;;;;;;42.22;25.02;;;-2.30;99.90;;;;;;5079091;28;20017;-82
2024/01/28 05:21:18;;;;;;;39.80;22.27;;;-2.30;99.90;;;;;;5072234;28;20028;-83
2024/01/28 05:23:45;;;;;;;36.85;22.45;;;-2.30;99.90;;;;;;5074331;28;20075;-81
2024/01/28 05:26:12;;;;;;;43.85;23.35;;;-2.30;99.90;;;;;;5072636;28;20025;-80
2024/01/28 05:28:38;;;;;;;40.10;24.40;;;-2.20;99.90;;;;;;5071273;28;20478;-81
2024/01/28 05:31:04;;;;;;;42.92;24.92;;;-2.20;99.90;;;;;;5067941;28;20025;-83
2024/01/28 05:33:34;;;;;;;43.10;23.85;;;-2.20;99.90;;;;;;5076969;28;20167;-82
2024/01/28 05:36:00;;;;;;;41.00;22.70;;;-2.20;99.90;;;;;;5084843;28;20490;-82
2024/01/28 05:38:26;;;;;;;48.65;24.17;;;-2.10;99.90;;;;;;5074631;28;20042;-85
2024/01/28 05:40:52;;;;;;;45.88;24.98;;;-2.10;99.90;;;;;;5067676;28;20021;-84
2024/01/28 05:43:18;;;;;;;47.47;24.40;;;-2.10;99.90;;;;;;5071224;28;20025;-83
2024/01/28 05:45:44;;;;;;;43.63;25.50;;;-2.10;99.90;;;;;;5089738;28;20057;-82
2024/01/28 05:48:10;;;;;;;40.95;22.80;;;-2.00;99.90;;;;;;5076512;28;20024;-83
2024/01/28 05:50:35;;;;;;;45.92;25.83;;;-2.00;99.90;;;;;;5075984;28;20496;-84
2024/01/28 05:53:01;;;;;;;40.40;22.25;;;-1.90;99.90;;;;;;5081833;28;20485;-83
2024/01/28 05:55:27;;;;;;;37.67;22.85;;;-1.90;99.90;;;;;;5079213;28;20031;-83
2024/01/28 05:57:53;;;;;;;36.53;21.85;;;-1.90;99.90;;;;;;5076154;28;20023;-83
2024/01/28 06:00:19;;;;;;;41.00;23.48;;;-1.90;99.70;;;;;;5083964;28;20084;-82
2024/01/28 06:02:46;;;;;;;35.47;22.65;;;-1.90;99.70;;;;;;5092053;28;20131;-82
2024/01/28 06:05:12;;;;;;;39.97;22.60;;;-1.80;99.70;;;;;;5088443;28;20037;-82
2024/01/28 06:07:40;;;;;;;46.10;24.15;;;-1.90;99.70;;;;;;5075709;28;20151;-82
2024/01/28 06:10:06;;;;;;;44.58;23.73;;;-1.80;99.70;;;;;;5071942;28;20040;-82
2024/01/28 06:12:32;;;;;;;49.30;24.00;;;-1.80;99.50;;;;;;5078574;28;20074;-82
2024/01/28 06:15:04;;;;;;;45.97;21.98;;;-1.90;99.40;;;;;;5076680;28;20032;-82
2024/01/28 06:17:30;;;;;;;37.47;22.80;;;-1.90;99.50;;;;;;5083121;28;20479;-81
2024/01/28 06:19:55;;;;;;;41.83;21.92;;;-1.90;99.60;;;;;;5080757;28;20016;-83
2024/01/28 06:22:21;;;;;;;34.50;21.38;;;-1.90;99.80;;;;;;5078606;28;20083;-81
2024/01/28 06:24:47;;;;;;;39.20;23.95;;;-1.90;99.70;;;;;;5073070;28;20020;-81
2024/01/28 06:27:13;;;;;;;38.08;21.20;;;-1.90;99.70;;;;;;5072131;28;20021;-83
2024/01/28 06:29:39;;;;;;;36.30;24.27;;;-1.90;99.60;;;;;;5071224;28;20124;-81
2024/01/28 06:32:05;;;;;;;36.47;23.35;;;-1.90;99.50;;;;;;5073782;28;20021;-82
2024/01/28 06:34:31;;;;;;;37.03;22.25;;;-1.90;99.40;;;;;;5073400;28;20032;-81
2024/01/28 06:36:57;;;;;;;44.60;24.55;;;-1.90;99.50;;;;;;5064106;28;20024;-82
2024/01/28 06:39:22;;;;;;;37.25;23.52;;;-1.90;99.50;;;;;;5067499;28;20126;-83
2024/01/28 06:41:50;;;;;;;43.38;25.30;;;-1.80;99.50;;;;;;5075276;28;20128;-81
2024/01/28 06:44:15;;;;;;;46.88;23.27;;;-1.80;99.50;;;;;;5074480;28;20420;-80
2024/01/28 06:46:41;;;;;;;43.65;24.15;;;-1.80;99.50;;;;;;5074827;28;20068;-82
2024/01/28 06:49:07;;;;;;;41.20;24.52;;;-1.80;99.70;;;;;;5078898;28;20041;-81
2024/01/28 06:51:33;;;;;;;38.58;24.00;;;-1.80;99.80;;;;;;5077253;28;20016;-79
2024/01/28 06:53:59;;;;;;;34.42;21.17;;;-1.70;99.90;;;;;;5074930;28;20482;-82
2024/01/28 06:56:24;;;;;;;40.03;22.02;;;-1.70;99.90;;;;;;5072285;28;20409;-82
2024/01/28 06:58:50;;;;;;;37.70;21.75;;;-1.60;99.90;;;;;;5073286;28;20032;-80
2024/01/28 07:01:17;;;;;;;39.50;26.13;;;-1.70;99.90;;;;;;5073923;28;20104;-81
2024/01/28 07:03:42;;;;;;;41.15;22.23;;;-1.60;99.90;;;;;;5071547;28;20039;-81
2024/01/28 07:06:14;;;;;;;38.28;22.50;;;-1.60;99.90;;;;;;5072296;28;20032;-78
2024/01/28 07:08:40;;;;;;;45.15;25.08;;;-1.60;99.90;;;;;;5070105;28;20079;-81
2024/01/28 07:11:05;;;;;;;38.28;24.23;;;-1.70;99.90;;;;;;5073492;28;20052;-83
2024/01/28 07:13:31;;;;;;;35.67;21.17;;;-1.60;99.90;;;;;;5073385;28;20024;-82
2024/01/28 07:15:57;;;;;;;35.78;20.83;;;-1.60;99.90;;;;;;5073420;28;20100;-81
2024/01/28 07:18:23;;;;;;;39.53;22.92;;;-1.60;99.90;;;;;;5072663;28;20056;-81
2024/01/28 07:20:49;;;;;;;36.65;21.10;;;-1.60;99.90;;;;;;5070902;28;20031;-83
2024/01/28 07:23:15;;;;;;;37.35;21.83;;;-1.60;99.90;;;;;;5073276;28;20013;-82
2024/01/28 07:25:42;;;;;;;35.30;20.58;;;-1.60;99.90;;;;;;5063305;28;20033;-83
2024/01/28 07:28:08;;;;;;;36.38;22.45;;;-1.70;99.90;;;;;;5064363;28;20028;-82
2024/01/28 07:30:33;;;;;;;34.22;20.80;;;-1.70;99.90;;;;;;5071480;28;20032;-82
2024/01/28 07:33:00;;;;;;;38.38;23.05;;;-1.70;99.90;;;;;;5073267;28;20469;-82
2024/01/28 07:35:25;;;;;;;40.25;21.30;;;-1.60;99.90;;;;;;5071415;28;20020;-82
2024/01/28 07:37:51;;;;;;;38.13;19.65;;;-1.60;99.90;;;;;;5076588;28;20106;-82
2024/01/28 07:40:17;;;;;;;29.92;18.88;;;-1.60;99.90;;;;;;5078171;28;20500;-84
2024/01/28 07:42:43;;;;;;;36.67;20.02;;;-1.50;99.90;;;;;;5076090;28;20042;-84
2024/01/28 07:45:11;;;;;;;35.67;19.10;;;-1.50;99.90;;;;;;5076094;28;20048;-84
2024/01/28 07:47:39;;;;;;;34.30;20.63;;;-1.50;99.90;;;;;;5070391;28;20025;-84
2024/01/28 07:50:06;;;;;;;;;;;-1.60;99.90;;;;;;5072025;28;20040;-82
2024/01/28 07:52:32;;;;;;;29.88;19.20;;;-1.60;99.90;;;;;;5072647;28;19978;-83
2024/01/28 07:54:58;;;;;;;34.03;19.48;;;-1.60;99.90;;;;;;5072007;28;20027;-84
2024/01/28 07:57:24;;;;;;;34.05;19.15;;;-1.60;99.90;;;;;;5071425;28;20107;-83
2024/01/28 07:59:49;;;;;;;30.52;20.02;;;-1.60;99.90;;;;;;5073110;28;20028;-83
2024/01/28 08:02:15;;;;;;;33.15;20.58;;;-1.60;99.90;;;;;;5060824;28;20020;-82
2024/01/28 08:04:43;;;;;;;31.80;18.02;;;-1.60;99.90;;;;;;5063894;28;20104;-81
2024/01/28 08:07:09;;;;;;;37.17;21.13;;;-1.60;99.90;;;;;;5053296;28;20043;-83
2024/01/28 08:09:36;;;;;;;35.95;20.58;;;-1.60;99.90;;;;;;5054498;28;20032;-83
2024/01/28 08:12:07;;;;;;;37.65;21.70;;;-1.60;99.90;;;;;;5066210;28;20039;-83
2024/01/28 08:14:33;;;;;;;37.83;20.40;;;-1.60;99.90;;;;;;5066967;28;20389;-84
2024/01/28 08:16:58;;;;;;;37.72;23.13;;;-1.60;99.90;;;;;;5072252;28;20020;-84
2024/01/28 08:19:24;;;;;;;37.78;20.83;;;-1.50;99.90;;;;;;5073907;28;20128;-86
2024/01/28 08:21:50;;;;;;;39.58;22.58;;;-1.30;99.90;;;;;;5069125;28;20025;-84
2024/01/28 08:24:16;;;;;;;37.10;21.80;;;-1.30;99.90;;;;;;5087996;28;20029;-85
2024/01/28 08:26:42;;;;;;;35.97;21.60;;;-1.40;99.80;;;;;;5062796;28;20100;-85
2024/01/28 08:29:08;;;;;;;37.15;23.30;;;-1.50;99.70;;;;;;5066524;28;20378;-83
2024/01/28 08:31:34;;;;;;;38.90;21.55;;;-1.60;99.60;;;;;;5071933;28;20021;-82
2024/01/28 08:34:00;;;;;;;33.45;20.50;;;-1.60;99.50;;;;;;5072558;28;20012;-83
2024/01/28 08:36:27;;;;;;;35.65;21.77;;;-1.60;99.60;;;;;;5072947;28;20017;-83
2024/01/28 08:38:52;;;;;;;33.28;19.60;;;-1.60;99.90;;;;;;5073858;28;20084;-82
2024/01/28 08:41:18;;;;;;;33.72;19.75;;;-1.60;99.90;;;;;;5086915;28;20154;-84
2024/01/28 08:43:52;;;;;;;35.50;20.08;;;-1.60;99.90;;;;;;5085190;28;20045;-84
2024/01/28 08:46:20;;;;;;;35.30;19.75;;;-1.60;99.90;;;;;;5064883;28;20776;-85
2024/01/28 08:48:49;;;;;;;31.65;19.73;;;-1.50;99.90;;;;;;5068176;28;20033;-84
2024/01/28 08:51:15;;;;;;;31.90;19.02;;;-1.50;99.90;;;;;;5069240;28;20033;-84
2024/01/28 08:53:42;;;;;;;39.42;20.48;;;-1.30;99.90;;;;;;5065459;28;20035;-84
2024/01/28 08:56:08;;;;;;;35.80;21.58;;;-1.30;99.90;;;;;;5072180;28;20020;-83
2024/01/28 08:58:34;;;;;;;37.58;19.98;;;-1.30;99.90;;;;;;5072951;28;20516;-85
2024/01/28 09:01:00;;;;;;;34.72;18.75;;;-1.30;99.90;;;;;;5066998;28;20021;-83
2024/01/28 09:03:25;;;;;;;29.13;19.58;;;-1.30;99.90;;;;;;5063612;28;20029;-88
2024/01/28 09:05:55;;;;;;;31.58;20.85;;;-1.30;99.90;;;;;;5073269;28;20043;-92
2024/01/28 09:08:21;;;;;;;36.83;21.70;;;-1.30;99.90;;;;;;5043865;28;20117;-93
2024/01/28 09:10:47;;;;;;;34.45;19.38;;;-1.20;99.90;;;;;;5060649;28;20071;-90
2024/01/28 09:13:13;;;;;;;24.67;17.58;;;-1.20;99.90;;;;;;5061085;28;20179;-91
2024/01/28 09:15:39;;;;;;;33.60;20.45;;;-1.30;99.90;;;;;;5057154;28;20033;-83
2024/01/28 09:18:05;;;;;;;30.40;19.10;;;-1.40;99.90;;;;;;5052668;28;20028;-80
2024/01/28 09:20:31;;;;;;;34.08;18.65;;;-1.50;99.90;;;;;;5050885;28;20025;-79
2024/01/28 09:22:56;;;;;;;38.25;20.02;;;-1.50;99.90;;;;;;5052055;28;20037;-78
2024/01/28 09:25:22;;;;;;;32.95;18.90;;;-1.50;99.90;;;;;;5053957;28;20021;-82
2024/01/28 09:27:50;;;;;;;32.00;20.38;;;-1.50;99.90;;;;;;5044636;28;20033;-81
2024/01/28 09:30:16;;;;;;;28.65;18.20;;;-1.50;99.90;;;;;;5053010;28;20036;-82
2024/01/28 09:32:41;;;;;;;34.90;20.70;;;-1.40;99.90;;;;;;5037391;28;20521;-82
2024/01/28 09:35:08;;;;;;;38.33;21.88;;;-1.30;99.90;;;;;;5052841;28;20143;-81
2024/01/28 09:37:34;;;;;;;31.33;18.17;;;-1.30;99.90;;;;;;5037956;28;20087;-80
2024/01/28 09:40:00;;;;;;;34.42;20.80;;;-1.30;99.90;;;;;;5070810;28;20493;-82
2024/01/28 09:42:37;;;;;;;28.85;18.35;;;-1.30;99.90;;;;;;5074348;28;20024;-80
2024/01/28 09:45:04;;;;;;;28.38;19.08;;;-1.30;99.90;;;;;;5065127;28;20037;-81
2024/01/28 09:47:32;;;;;;;31.47;17.87;;;-1.30;99.90;;;;;;5072054;28;20535;-81
2024/01/28 09:50:00;;;;;;;28.30;19.15;;;-1.20;99.90;;;;;;5068177;28;20029;-79
2024/01/28 09:52:27;;;;;;;31.05;17.92;;;-1.20;99.90;;;;;;5074024;28;20021;-80
2024/01/28 09:54:52;;;;;;;30.47;19.03;;;-1.20;99.70;;;;;;5082089;28;20070;-81
2024/01/28 09:57:18;;;;;;;30.98;17.40;;;-1.30;99.40;;;;;;5078045;28;20646;-81
2024/01/28 09:59:46;;;;;;;30.92;18.55;;;-1.30;99.40;;;;;;5076355;28;20029;-79
2024/01/28 10:02:14;;;;;;;30.50;20.08;;;-1.30;99.60;;;;;;5078432;28;20016;-79
2024/01/28 10:04:40;;;;;;;32.28;20.48;;;-1.30;99.80;;;;;;5074960;28;20037;-78
2024/01/28 10:07:09;;;;;;;33.55;19.30;;;-1.10;99.80;;;;;;5070326;28;20025;-79
2024/01/28 10:09:35;;;;;;;27.77;20.05;;;-1.10;99.60;;;;;;5076749;28;20036;-78
2024/01/28 10:12:01;;;;;;;31.88;18.85;;;-1.10;99.70;;;;;;5064041;28;20035;-79
2024/01/28 10:14:27;;;;;;;29.92;17.40;;;-1.10;99.80;;;;;;5089946;28;20020;-80
2024/01/28 10:16:54;;;;;;;31.83;20.88;;;-1.10;99.90;;;;;;5072872;28;20063;-79
2024/01/28 10:19:20;;;;;;;26.30;18.00;;;-0.90;99.90;;;;;;5074358;28;20359;-79
2024/01/28 10:21:46;;;;;;;30.60;20.00;;;-0.90;99.70;;;;;;5061886;28;20024;-79
2024/01/28 10:24:14;;;;;;;32.10;20.20;;;-0.80;99.60;;;;;;5070647;28;20124;-81
2024/01/28 10:26:40;;;;;;;30.40;18.73;;;-0.80;99.60;;;;;;5071942;28;20030;-80
2024/01/28 10:29:09;;;;;;;35.13;20.10;;;-0.80;99.20;;;;;;5068509;28;20041;-81
2024/01/28 10:31:35;;;;;;;30.15;18.55;;;-0.80;99.30;;;;;;5069837;28;20043;-80
2024/01/28 10:34:01;;;;;;;31.55;21.67;;;-0.90;99.80;;;;;;5070528;28;20408;-82
2024/01/28 10:36:27;;;;;;;32.22;20.23;;;-1.00;99.70;;;;;;5061824;28;20040;-80
2024/01/28 10:39:00;;;;;;;31.38;19.42;;;-1.00;99.60;;;;;;5057259;28;20029;-81
2024/01/28 10:41:26;;;;;;;33.90;20.73;;;-1.00;99.40;;;;;;5067493;28;20070;-79
2024/01/28 10:43:58;;;;;;;25.25;17.17;;;-1.00;99.20;;;;;;5063742;28;20048;-79
2024/01/28 10:46:39;;;;;;;32.97;21.40;;;-1.00;99.30;;;;;;5060959;28;20025;-80
2024/01/28 10:49:10;;;;;;;31.45;18.95;;;-1.00;99.20;;;;;;5072284;28;20086;-79
2024/01/28 10:51:40;;;;;;;30.63;18.75;;;-1.00;99.30;;;;;;5066141;28;20032;-79
2024/01/28 10:54:07;;;;;;;28.52;18.23;;;-1.00;99.30;;;;;;5071528;28;20024;-79
2024/01/28 10:56:38;;;;;;;28.17;20.55;;;-1.20;99.60;;;;;;5073200;28;20038;-83
2024/01/28 10:59:04;;;;;;;29.83;18.58;;;-1.20;99.90;;;;;;5073251;28;20091;-83
2024/01/28 11:01:31;;;;;;;32.35;19.40;;;-1.10;99.90;;;;;;5073881;28;20471;-81
2024/01/28 11:03:58;;;;;;;30.95;19.42;;;-1.00;99.90;;;;;;5071622;28;20027;-82
2024/01/28 11:06:29;;;;;;;33.22;19.40;;;-0.80;99.60;;;;;;5071360;28;20030;-82
2024/01/28 11:08:55;;;;;;;31.00;19.92;;;-0.60;99.30;;;;;;5072730;28;20127;-79
2024/01/28 11:11:22;;;;;;;29.55;19.85;;;-0.60;98.80;;;;;;5063457;28;20087;-80
2024/01/28 11:13:48;;;;;;;33.43;21.70;;;-0.50;98.60;;;;;;5070927;28;20024;-81
2024/01/28 11:16:15;;;;;;;27.70;17.02;;;-0.50;99.00;;;;;;5067908;28;20111;-80
2024/01/28 11:18:52;;;;;;;31.15;20.95;;;-0.40;99.30;;;;;;5064257;28;20035;-82
2024/01/28 11:21:20;;;;;;;31.35;19.15;;;-0.40;99.20;;;;;;5066245;28;20098;-81
2024/01/28 11:23:49;;;;;;;33.03;19.50;;;-0.30;98.90;;;;;;5071114;28;20079;-80
2024/01/28 11:26:16;;;;;;;35.88;24.27;;;-0.30;98.80;;;;;;5069814;28;20029;-81
2024/01/28 11:28:53;;;;;;;29.13;18.95;;;-0.30;98.50;;;;;;5067713;28;20492;-80
2024/01/28 11:31:23;;;;;;;;;;;-0.30;97.90;;;;;;5074192;28;20535;-81
2024/01/28 11:33:49;;;;;;;33.38;18.15;;;-0.30;98.30;;;;;;5068392;28;19916;-80
2024/01/28 11:36:26;;;;;;;27.27;17.23;;;-0.50;98.70;;;;;;5072607;28;20020;-81
2024/01/28 11:39:06;;;;;;;28.05;19.67;;;-0.50;98.40;;;;;;5072431;28;20044;-82
2024/01/28 11:41:37;;;;;;;23.30;16.73;;;-0.50;98.10;;;;;;5072379;28;20032;-82
2024/01/28 11:44:04;;;;;;;31.38;18.77;;;-0.50;98.50;;;;;;5066661;28;20020;-82
2024/01/28 11:46:31;;;;;;;26.10;17.65;;;-0.70;98.80;;;;;;5068531;28;20032;-81
2024/01/28 11:48:57;;;;;;;27.02;19.77;;;-0.70;99.00;;;;;;5066320;28;20154;-81
2024/01/28 11:51:23;;;;;;;26.98;18.25;;;-0.80;98.90;;;;;;5073497;28;20510;-82
2024/01/28 11:53:49;;;;;;;27.55;17.85;;;-0.70;98.70;;;;;;5077907;28;20133;-81
2024/01/28 11:56:16;;;;;;;30.35;18.75;;;-0.90;98.40;;;;;;5075249;28;20024;-81
2024/01/28 11:58:41;;;;;;;31.02;19.73;;;-1.00;98.20;;;;;;5072856;28;20388;-80
2024/01/28 12:01:07;;;;;;;29.80;20.08;;;-0.90;98.10;;;;;;5071243;28;20070;-82
2024/01/28 12:03:33;;;;;;;30.83;20.15;;;-1.00;98.10;;;;;;5072437;28;20067;-81
2024/01/28 12:05:59;;;;;;;28.88;19.63;;;-1.00;98.00;;;;;;5061515;28;20021;-81
2024/01/28 12:08:26;;;;;;;33.42;19.95;;;-1.00;98.00;;;;;;5069464;28;20128;-81
2024/01/28 12:11:02;;;;;;;30.48;19.90;;;-1.00;97.90;;;;;;5066858;28;20028;-81
2024/01/28 12:13:28;;;;;;;33.78;21.25;;;-1.20;97.90;;;;;;5062443;28;20029;-79
2024/01/28 12:15:57;;;;;;;33.25;21.50;;;-1.30;98.10;;;;;;5071091;28;20043;-81
2024/01/28 12:18:29;;;;;;;33.33;21.17;;;-1.20;98.20;;;;;;5067326;28;20036;-82
2024/01/28 12:20:55;;;;;;;36.03;22.42;;;-1.20;98.20;;;;;;5072307;28;20020;-80
2024/01/28 12:23:21;;;;;;;31.08;22.08;;;-1.20;98.20;;;;;;5071860;28;20028;-81
2024/01/28 12:25:49;;;;;;;36.45;21.80;;;-1.20;98.20;;;;;;5072619;28;20473;-80